Nearby METAR Reports

 

KSGR - Houston/Sugar La, Texas, USA
Distance from station: ESE 7mi, 12km
Updated: Sat, 25-Jun-2022 2:53am CDT
Clear
Clear
 Wind from calm
Wind: Calm
Temperature: 75°F , 24°C
Dew Point: 73°F , 23°C
Humidity: 94%
Barometer: 29.94 inHg , 1013.9 hPa
Clouds: Clear
Visibility: 10 miles , 16 km
2022/06/25 07:53 KSGR 250753Z AUTO 00000KT 10SM CLR 24/23 A2994 RMK AO2 SLP140 T02440228
KTME - Houston Exec, Texas, USA
Distance from station: NW 14mi, 22km
Updated: Sat, 25-Jun-2022 2:55am CDT
Clear
Clear
 Wind from calm
Wind: Calm
Temperature: 75°F , 24°C
Dew Point: 75°F , 24°C
Humidity: 100%
Barometer: 29.96 inHg , 1014.6 hPa
Clouds: Clear
Visibility: 7 miles , 11 km
2022/06/25 07:55 KTME 250755Z AUTO 00000KT 7SM CLR 24/24 A2996 RMK AO2
 
KAXH - Houston/Southwst, Texas, USA
Distance from station: ESE 19mi, 31km
Updated: Sat, 25-Jun-2022 2:55am CDT
Clear
Clear
 Wind from calm
Wind: Calm
Temperature: 72°F , 22°C
Dew Point: 72°F , 22°C
Humidity: 100%
Barometer: 29.96 inHg , 1014.6 hPa
Clouds: Clear
Visibility: 10 miles , 16 km
2022/06/25 07:55 KAXH 250755Z AUTO 00000KT 10SM CLR 22/22 A2996 RMK AO2 T02220215
KMCJ - Houston/Univ, Texas, USA
Distance from station: ENE 23mi, 37km
Updated: Sat, 25-Jun-2022 2:55am CDT
Few Clouds
Few Clouds
 Wind from varies
Wind: varies 7 mph , 11 km/h
Temperature: 79°F , 26°C
Dew Point: 73°F , 23°C
Humidity: 84%
Barometer: 29.94 inHg , 1013.9 hPa
Clouds: Few Clouds
Visibility: 8 miles , 13 km
Cloud details: Few Clouds 1800 ft
Few Clouds 2700 ft
2022/06/25 07:55 KMCJ 250755Z AUTO VRB06KT 8SM FEW018 FEW027 26/23 A2994 RMK A01
 
KHOU - Houston/Hobby, Texas, USA
Distance from station: E 29mi, 47km
Updated: Sat, 25-Jun-2022 2:53am CDT
Few Clouds
Few Clouds
 Wind from calm
Wind: Calm
Temperature: 77°F , 25°C
Dew Point: 73°F , 23°C
Humidity: 89%
Barometer: 29.94 inHg , 1013.9 hPa
Clouds: Few Clouds
Visibility: 10 miles , 16 km
Cloud details: Few Clouds 1700 ft
2022/06/25 07:53 KHOU 250753Z 00000KT 10SM FEW017 25/23 A2994 RMK AO2 SLP143 T02500228
KDWH - Houston/Dw Hooks, Texas, USA
Distance from station: NNE 32mi, 52km
Updated: Sat, 25-Jun-2022 2:53am CDT
Clear
Clear
 Wind from SSW
Wind: SSW 5 mph , 7 km/h
Temperature: 79°F , 26°C
Dew Point: 73°F , 23°C
Humidity: 84%
Barometer: 29.95 inHg , 1014.2 hPa
Clouds: Clear
Visibility: 10 miles , 16 km
2022/06/25 07:53 KDWH 250753Z 21004KT 10SM CLR 26/23 A2995 RMK AO2 SLP138 T02560228 $
 
KLVJ - Houston, Texas, USA
Distance from station: ESE 32mi, 52km
Updated: Sat, 25-Jun-2022 2:53am CDT
Clear
Clear
 Wind from calm
Wind: Calm
Temperature: 75°F , 24°C
Dew Point: 72°F , 22°C
Humidity: 89%
Barometer: 29.96 inHg , 1014.6 hPa
Clouds: Clear
Visibility: 10 miles , 16 km
2022/06/25 07:53 KLVJ 250753Z AUTO 00000KT 10SM CLR 24/22 A2996 RMK AO2 SLP143 T02440222
KELA - Eagle Lake, Texas, USA
Distance from station: W 33mi, 53km
Updated: Sat, 25-Jun-2022 2:55am CDT
Clear
Clear
 Wind from calm
Wind: Calm
Temperature: 75°F , 24°C
Dew Point: 73°F , 23°C
Humidity: 94%
Barometer: 29.95 inHg , 1014.2 hPa
Clouds: Clear
Visibility: 10 miles , 16 km
2022/06/25 07:55 KELA 250755Z AUTO 00000KT 10SM CLR 24/23 A2995 RMK AO2 T02400227
 
KIAH - Houston/Intnl, Texas, USA
Distance from station: NE 35mi, 56km
Updated: Sat, 25-Jun-2022 2:53am CDT
Clear
Clear
 Wind from SSW
Wind: SSW 5 mph , 7 km/h
Temperature: 79°F , 26°C
Dew Point: 73°F , 23°C
Humidity: 84%
Barometer: 29.95 inHg , 1014.2 hPa
Clouds: Clear
Visibility: 10 miles , 16 km
2022/06/25 07:53 KIAH 250753Z 20004KT 10SM CLR 26/23 A2995 RMK AO2 SLP139 T02610228
KARM - Wharton, Texas, USA
Distance from station: SW 35mi, 57km
Updated: Sat, 25-Jun-2022 2:55am CDT
Clear
Clear
 Wind from SE
Wind: SE 3 mph , 6 km/h
Temperature: 73°F , 23°C
Dew Point: 72°F , 22°C
Humidity: 94%
Barometer: 29.95 inHg , 1014.2 hPa
Clouds: Clear
Visibility: 10 miles , 16 km
2022/06/25 07:55 KARM 250755Z AUTO 14003KT 10SM CLR 23/22 A2995 RMK AO2 T02310222
 
KEFD - Houston/Ellingto, Texas, USA
Distance from station: E 36mi, 59km
Updated: Sat, 25-Jun-2022 2:54am CDT
Clear
Clear
 Wind from S
Wind: S 5 mph , 7 km/h
Temperature: 75°F , 24°C
Dew Point: 73°F , 23°C
Humidity: 94%
Barometer: 29.94 inHg , 1013.9 hPa
Clouds: Clear
Visibility: 10 miles , 16 km
2022/06/25 07:54 KEFD 250754Z 17004KT 10SM CLR 24/23 A2994
KLBX - Angleton, Texas, USA
Distance from station: SSE 40mi, 65km
Updated: Sat, 25-Jun-2022 2:53am CDT
Mist, Clear
Mist, Clear
 Wind from calm
Wind: Calm
Temperature: 73°F , 23°C
Dew Point: 72°F , 22°C
Humidity: 94%
Barometer: 29.94 inHg , 1013.9 hPa
Summary: Mist
Clouds: Clear
Visibility: 3 miles , 5 km
2022/06/25 07:53 KLBX 250753Z AUTO 00000KT 3SM BR CLR 23/22 A2994 RMK AO2 SLP139 T02280217
 
K66R - Columbus, Texas, USA
Distance from station: W 45mi, 72km
Updated: Sat, 25-Jun-2022 2:55am CDT
Clear
Clear
 Wind from calm
Wind: Calm
Temperature: 73°F , 23°C
Dew Point: 72°F , 22°C
Humidity: 94%
Barometer: 29.96 inHg , 1014.6 hPa
Clouds: Clear
Visibility: 10 miles , 16 km
2022/06/25 07:55 K66R 250755Z AUTO 00000KT 10SM CLR 23/22 A2996 RMK AO2 T02310221
KBYY - Bay City, Texas, USA
Distance from station: S 47mi, 75km
Updated: Sat, 25-Jun-2022 2:55am CDT
Clear
Clear
 Wind from S
Wind: S 3 mph , 6 km/h
Temperature: 73°F , 23°C
Dew Point: 72°F , 22°C
Humidity: 94%
Barometer: 29.95 inHg , 1014.2 hPa
Clouds: Clear
Visibility: 10 miles , 16 km
2022/06/25 07:55 KBYY 250755Z AUTO 17003KT 10SM CLR 23/22 A2995 RMK AO2 T02360226